Time;durP1;ratioP1;P1;durP2;ratioP2;P2;SDS_P1;SDS_P2;PMS_P1;PMS_P2;Temp;Humidity;BMP_temperature;BMP_pressure;BME280_temperature;BME280_humidity;BME280_pressure;Samples;Min_cycle;Max_cycle;Signal;HPM_P1;HPM_P2
2023/12/19 00:00:55;;;;;;;8.65;7.85;;;4.80;55.50;;;;;;20412;6874;308604;-67
2023/12/19 00:03:22;;;;;;;7.70;6.80;;;4.70;55.30;;;;;;20676;6874;117607;-67
2023/12/19 00:05:49;;;;;;;6.77;6.17;;;4.50;55.70;;;;;;20687;6874;117763;-66
2023/12/19 00:08:15;;;;;;;6.97;6.30;;;4.50;55.70;;;;;;20544;6874;122485;-66
2023/12/19 00:10:42;;;;;;;6.30;5.80;;;4.40;56.20;;;;;;20666;6874;117534;-66
2023/12/19 00:13:07;;;;;;;5.77;5.30;;;4.20;56.50;;;;;;20665;6874;118115;-66
2023/12/19 00:15:32;;;;;;;7.30;6.70;;;4.10;56.90;;;;;;20465;6874;308207;-66
2023/12/19 00:17:57;;;;;;;7.50;6.90;;;4.30;56.30;;;;;;20442;6874;279769;-66
2023/12/19 00:20:23;;;;;;;6.37;5.87;;;4.70;55.00;;;;;;20656;6874;118303;-65
2023/12/19 00:22:48;;;;;;;6.97;6.37;;;4.70;54.90;;;;;;20461;6874;318809;-66
2023/12/19 00:25:14;;;;;;;7.03;5.73;;;4.90;54.20;;;;;;20671;6874;117836;-67
2023/12/19 00:27:40;;;;;;;6.40;5.80;;;4.90;54.30;;;;;;20678;6874;118898;-67
2023/12/19 00:30:06;;;;;;;6.57;4.80;;;4.70;54.80;;;;;;20642;6874;118187;-67
2023/12/19 00:32:32;;;;;;;5.40;4.90;;;4.50;55.30;;;;;;20677;6874;118577;-67
2023/12/19 00:34:57;;;;;;;6.30;5.80;;;4.40;55.70;;;;;;20472;6874;279062;-68
2023/12/19 00:37:22;;;;;;;6.03;5.43;;;4.60;54.80;;;;;;20687;6874;117453;-67
2023/12/19 00:39:48;;;;;;;6.43;5.95;;;4.60;54.60;;;;;;20427;6874;279528;-67
2023/12/19 00:42:14;;;;;;;6.72;6.20;;;4.80;53.70;;;;;;20345;6874;278604;-66
2023/12/19 00:44:39;;;;;;;7.27;6.70;;;5.10;52.70;;;;;;20471;6873;309709;-67
2023/12/19 00:47:05;;;;;;;8.10;7.50;;;5.40;51.80;;;;;;20461;6874;337759;-66
2023/12/19 00:49:31;;;;;;;7.40;6.80;;;5.30;51.40;;;;;;20670;6874;117583;-67
2023/12/19 00:51:57;;;;;;;7.33;6.63;;;5.30;51.40;;;;;;20656;6874;118545;-67
2023/12/19 00:54:23;;;;;;;7.27;6.60;;;4.60;52.90;;;;;;20689;6874;117631;-66
2023/12/19 00:56:49;;;;;;;6.73;6.13;;;4.30;53.60;;;;;;20689;6874;120663;-67
2023/12/19 00:59:16;;;;;;;8.93;7.97;;;4.30;53.60;;;;;;20470;6874;338360;-67
2023/12/19 01:01:41;;;;;;;7.60;6.90;;;4.30;53.60;;;;;;20675;6874;117406;-67
2023/12/19 01:04:09;;;;;;;9.60;8.80;;;4.30;54.10;;;;;;20460;6874;280003;-67
2023/12/19 01:06:34;;;;;;;9.20;8.40;;;4.50;53.60;;;;;;20471;6874;309462;-67
2023/12/19 01:08:59;;;;;;;8.60;7.90;;;4.50;53.60;;;;;;20457;6874;308139;-67
2023/12/19 01:11:25;;;;;;;9.45;8.65;;;4.70;53.20;;;;;;20463;6874;337922;-67
2023/12/19 01:13:51;;;;;;;9.40;8.70;;;4.90;52.70;;;;;;20453;6874;337893;-68
2023/12/19 01:16:16;;;;;;;8.70;7.50;;;4.90;52.70;;;;;;20687;6874;120689;-68
2023/12/19 01:18:43;;;;;;;6.73;6.13;;;4.40;53.80;;;;;;20680;6874;117798;-67
2023/12/19 01:21:08;;;;;;;6.70;6.10;;;4.40;53.80;;;;;;20680;6874;118971;-68
2023/12/19 01:23:34;;;;;;;8.18;7.47;;;4.10;54.60;;;;;;20475;6874;308976;-68
2023/12/19 01:25:59;;;;;;;8.02;7.35;;;4.20;54.80;;;;;;20448;6874;301070;-68
2023/12/19 01:28:25;;;;;;;7.30;6.70;;;4.50;54.10;;;;;;20477;6874;281133;-68
2023/12/19 01:30:51;;;;;;;7.60;7.10;;;5.00;52.40;;;;;;20469;6874;306094;-68
2023/12/19 01:33:18;;;;;;;7.97;7.37;;;5.10;51.70;;;;;;20464;6874;341182;-68
2023/12/19 01:35:45;;;;;;;6.20;5.70;;;4.90;52.00;;;;;;20681;6874;118520;-68
2023/12/19 01:38:10;;;;;;;6.43;5.90;;;4.60;52.90;;;;;;20660;6874;119104;-68
2023/12/19 01:40:37;;;;;;;6.33;5.67;;;4.30;53.60;;;;;;20671;6874;118236;-68
2023/12/19 01:43:02;;;;;;;7.68;7.07;;;4.30;53.60;;;;;;20472;6874;333926;-68
2023/12/19 01:45:28;;;;;;;7.82;7.10;;;4.30;53.50;;;;;;20471;6874;294523;-68
2023/12/19 01:47:54;;;;;;;6.23;5.57;;;4.60;52.80;;;;;;20658;6874;141982;-68
2023/12/19 01:50:19;;;;;;;4.83;4.53;;;4.50;53.00;;;;;;20675;6874;118771;-67
2023/12/19 01:52:45;;;;;;;5.40;5.00;;;4.10;54.20;;;;;;20687;6874;117418;-68
2023/12/19 01:55:11;;;;;;;6.10;5.63;;;4.10;54.20;;;;;;20461;6872;310228;-68
2023/12/19 01:57:37;;;;;;;5.85;5.40;;;4.60;52.70;;;;;;20460;6874;338639;-68
2023/12/19 02:00:03;;;;;;;6.07;5.67;;;4.50;52.50;;;;;;20438;6874;294614;-68
2023/12/19 02:02:29;;;;;;;6.20;5.80;;;4.90;51.60;;;;;;20461;6874;309023;-68
2023/12/19 02:04:55;;;;;;;6.12;5.60;;;5.10;50.70;;;;;;20465;6874;308951;-67
2023/12/19 02:07:21;;;;;;;5.40;4.90;;;5.20;50.50;;;;;;20678;6874;118319;-69
2023/12/19 02:09:47;;;;;;;5.57;5.17;;;4.80;51.20;;;;;;20672;6874;117590;-68
2023/12/19 02:12:13;;;;;;;6.37;5.87;;;4.80;51.20;;;;;;20330;6874;339081;-66
2023/12/19 02:14:39;;;;;;;6.63;5.70;;;4.80;51.00;;;;;;20685;6874;117518;-66
2023/12/19 02:17:05;;;;;;;5.53;5.13;;;4.80;51.50;;;;;;20679;6874;117513;-67
2023/12/19 02:19:30;;;;;;;6.25;5.85;;;4.60;52.10;;;;;;20464;6874;308551;-67
2023/12/19 02:21:57;;;;;;;6.72;6.22;;;4.60;51.70;;;;;;20446;6874;279405;-67
2023/12/19 02:24:24;;;;;;;6.10;5.70;;;4.90;51.40;;;;;;20464;6874;312935;-67
2023/12/19 02:26:48;;;;;;;6.25;5.85;;;5.10;50.50;;;;;;20459;6874;307963;-67
2023/12/19 02:29:13;;;;;;;5.10;4.70;;;5.30;50.40;;;;;;20675;6874;117577;-66
2023/12/19 02:31:39;;;;;;;4.80;4.47;;;5.20;50.70;;;;;;20671;6874;117840;-68
2023/12/19 02:34:05;;;;;;;4.87;4.57;;;4.50;51.80;;;;;;20655;6874;118266;-67
2023/12/19 02:36:32;;;;;;;4.73;3.50;;;4.30;52.70;;;;;;20684;6874;118118;-67
2023/12/19 02:38:57;;;;;;;5.20;4.90;;;4.30;52.50;;;;;;20467;6874;334711;-67
2023/12/19 02:41:24;;;;;;;4.40;4.10;;;4.80;50.20;;;;;;20462;6874;279574;-67
2023/12/19 02:43:49;;;;;;;5.63;5.23;;;4.70;50.10;;;;;;20457;6874;281255;-68
2023/12/19 02:46:15;;;;;;;5.27;4.87;;;5.00;49.10;;;;;;20679;6874;117600;-65
2023/12/19 02:48:40;;;;;;;7.47;6.80;;;5.00;49.50;;;;;;20465;6874;308763;-66
2023/12/19 02:51:06;;;;;;;6.27;5.77;;;5.00;49.40;;;;;;20676;6874;118552;-67
2023/12/19 02:53:32;;;;;;;6.90;6.40;;;4.80;49.80;;;;;;20476;6874;281475;-67
2023/12/19 02:55:57;;;;;;;7.13;6.13;;;4.80;50.10;;;;;;20664;6874;117989;-67
2023/12/19 02:58:23;;;;;;;7.85;7.25;;;4.70;50.60;;;;;;20467;6874;310701;-66
2023/12/19 03:00:49;;;;;;;7.95;7.32;;;4.70;51.00;;;;;;20465;6874;279508;-67
2023/12/19 03:03:14;;;;;;;7.60;6.90;;;4.80;50.60;;;;;;20473;6874;308182;-69
2023/12/19 03:05:40;;;;;;;7.00;6.40;;;5.00;50.30;;;;;;20471;6874;337816;-67
2023/12/19 03:08:05;;;;;;;6.57;6.15;;;5.00;50.00;;;;;;20451;6873;338660;-67
2023/12/19 03:10:31;;;;;;;7.07;6.55;;;5.10;50.50;;;;;;20465;6874;326397;-67
2023/12/19 03:12:57;;;;;;;6.23;5.63;;;5.20;49.60;;;;;;20611;6874;117415;-67
2023/12/19 03:15:24;;;;;;;6.73;6.23;;;4.90;50.10;;;;;;20356;6874;308591;-67
2023/12/19 03:17:49;;;;;;;6.78;6.10;;;4.80;50.30;;;;;;20413;6874;279126;-68
2023/12/19 03:20:14;;;;;;;5.90;5.40;;;4.90;49.80;;;;;;20627;6874;117798;-67
2023/12/19 03:22:40;;;;;;;6.97;6.37;;;4.70;50.10;;;;;;20442;6874;308270;-67
2023/12/19 03:25:06;;;;;;;6.90;6.30;;;4.60;50.20;;;;;;20465;6874;311317;-67
2023/12/19 03:27:32;;;;;;;5.63;5.23;;;4.60;51.10;;;;;;20664;6874;117058;-67
2023/12/19 03:29:58;;;;;;;6.85;6.35;;;4.50;50.30;;;;;;20420;6874;307062;-67
2023/12/19 03:32:23;;;;;;;5.80;5.23;;;4.50;50.60;;;;;;20670;6874;117559;-67
2023/12/19 03:34:49;;;;;;;6.70;6.20;;;4.30;51.00;;;;;;20467;6874;309041;-67
2023/12/19 03:37:15;;;;;;;5.30;4.90;;;4.30;51.00;;;;;;20687;6874;117674;-67
2023/12/19 03:39:40;;;;;;;5.65;5.25;;;4.20;51.30;;;;;;20458;6874;288696;-67
2023/12/19 03:42:06;;;;;;;5.27;4.77;;;4.30;51.10;;;;;;20665;6874;117994;-67
2023/12/19 03:44:32;;;;;;;4.70;4.30;;;4.00;52.00;;;;;;20687;6874;118641;-67
2023/12/19 03:46:58;;;;;;;4.90;4.60;;;4.10;51.30;;;;;;20473;6874;281564;-67
2023/12/19 03:49:24;;;;;;;4.20;3.90;;;4.10;51.30;;;;;;20674;6874;117405;-67
2023/12/19 03:51:50;;;;;;;3.73;3.53;;;4.10;51.30;;;;;;20659;6874;118788;-68
2023/12/19 03:54:17;;;;;;;3.23;3.03;;;4.00;51.90;;;;;;20690;6874;119930;-68
2023/12/19 03:56:42;;;;;;;3.23;2.97;;;3.90;52.60;;;;;;20683;6874;117449;-67
2023/12/19 03:59:08;;;;;;;3.30;3.10;;;3.80;53.20;;;;;;20681;6874;118318;-67
2023/12/19 04:01:34;;;;;;;3.13;2.93;;;3.80;54.10;;;;;;20667;6874;118117;-67
2023/12/19 04:04:00;;;;;;;3.77;3.57;;;3.70;53.80;;;;;;20429;6874;278758;-67
2023/12/19 04:06:25;;;;;;;4.15;3.85;;;4.00;51.90;;;;;;20471;6874;322567;-67
2023/12/19 04:08:52;;;;;;;3.85;3.62;;;4.40;50.00;;;;;;20470;6874;279838;-67
2023/12/19 04:11:19;;;;;;;3.97;3.65;;;4.80;48.60;;;;;;20465;6874;308871;-66
2023/12/19 04:13:44;;;;;;;3.40;3.20;;;5.00;47.10;;;;;;20466;6874;309597;-66
2023/12/19 04:16:09;;;;;;;3.67;3.47;;;5.20;46.40;;;;;;20474;6874;311715;-67
2023/12/19 04:18:35;;;;;;;3.60;3.40;;;5.40;45.90;;;;;;20678;6873;117888;-67
2023/12/19 04:21:00;;;;;;;3.90;3.70;;;5.30;46.70;;;;;;20443;6874;280364;-66
2023/12/19 04:23:27;;;;;;;3.33;3.13;;;5.10;47.20;;;;;;20687;6874;117435;-66
2023/12/19 04:25:52;;;;;;;3.83;3.53;;;5.10;47.20;;;;;;20662;6874;120956;-67
2023/12/19 04:28:18;;;;;;;4.12;3.83;;;4.80;47.90;;;;;;20487;6874;299981;-67
2023/12/19 04:30:44;;;;;;;3.77;3.53;;;4.80;48.30;;;;;;20675;6874;118245;-66
2023/12/19 04:33:09;;;;;;;4.00;3.70;;;4.70;48.20;;;;;;20683;6874;117429;-66
2023/12/19 04:35:35;;;;;;;4.50;4.20;;;4.40;48.80;;;;;;20668;6874;68559;-66
2023/12/19 04:38:00;;;;;;;4.77;4.47;;;4.10;49.40;;;;;;20646;6874;120235;-67
2023/12/19 04:40:26;;;;;;;5.03;4.27;;;3.90;50.00;;;;;;20655;6874;118672;-66
2023/12/19 04:42:52;;;;;;;6.22;5.82;;;3.70;50.60;;;;;;20303;6874;314787;-66
2023/12/19 04:45:17;;;;;;;5.40;4.90;;;3.80;50.60;;;;;;20500;6874;118403;-66
2023/12/19 04:47:43;;;;;;;6.65;6.05;;;3.80;50.80;;;;;;20487;6874;290601;-67
2023/12/19 04:50:08;;;;;;;6.50;6.00;;;3.90;51.10;;;;;;20399;6874;325189;-67
2023/12/19 04:52:34;;;;;;;5.50;5.03;;;4.10;50.50;;;;;;20665;6874;118794;-67
2023/12/19 04:55:00;;;;;;;6.15;5.75;;;4.10;50.60;;;;;;20466;6874;309445;-67
2023/12/19 04:57:25;;;;;;;6.00;5.60;;;4.10;50.50;;;;;;20460;6874;301574;-67
2023/12/19 04:59:52;;;;;;;5.10;4.70;;;4.30;49.80;;;;;;20636;6874;118103;-68
2023/12/19 05:02:17;;;;;;;4.73;4.43;;;4.20;50.00;;;;;;20349;6874;118579;-67
2023/12/19 05:04:44;;;;;;;5.72;5.18;;;3.90;50.70;;;;;;20470;6874;281858;-67
2023/12/19 05:07:10;;;;;;;5.97;5.47;;;4.20;50.10;;;;;;20460;6874;306996;-67
2023/12/19 05:09:35;;;;;;;5.80;5.40;;;4.20;50.10;;;;;;20455;6874;340272;-67
2023/12/19 05:12:01;;;;;;;5.63;5.20;;;4.40;50.00;;;;;;20651;6874;118472;-66
2023/12/19 05:14:27;;;;;;;4.60;4.20;;;4.00;51.20;;;;;;20685;6874;120502;-67
2023/12/19 05:16:53;;;;;;;4.63;4.33;;;3.90;50.50;;;;;;20682;6874;119229;-67
2023/12/19 05:19:18;;;;;;;4.60;4.30;;;3.70;51.80;;;;;;20459;6874;282078;-66
2023/12/19 05:21:44;;;;;;;4.75;4.45;;;3.80;51.00;;;;;;20464;6874;309504;-67
2023/12/19 05:24:09;;;;;;;4.90;4.50;;;4.10;49.80;;;;;;20422;6874;323152;-68
2023/12/19 05:26:35;;;;;;;4.50;4.10;;;4.40;48.50;;;;;;20475;6874;282943;-66
2023/12/19 05:29:01;;;;;;;4.20;3.90;;;4.60;47.70;;;;;;20459;6874;309496;-66
2023/12/19 05:31:26;;;;;;;4.10;3.80;;;4.80;47.40;;;;;;20432;6873;304705;-68
2023/12/19 05:33:52;;;;;;;3.83;3.53;;;4.90;46.90;;;;;;20663;6874;114493;-68
2023/12/19 05:36:18;;;;;;;3.92;3.67;;;4.80;47.60;;;;;;20451;6874;284354;-67
2023/12/19 05:38:43;;;;;;;4.68;4.28;;;4.70;47.30;;;;;;20436;6874;281189;-68
2023/12/19 05:41:14;;;;;;;4.25;3.85;;;4.80;46.70;;;;;;20450;6874;308167;-68
2023/12/19 05:43:34;;;;;;;3.97;3.63;;;5.00;46.50;;;;;;20659;6874;114894;-67
2023/12/19 05:46:00;;;;;;;3.83;3.33;;;4.80;47.20;;;;;;20708;6874;74329;-68
2023/12/19 05:48:26;;;;;;;3.40;3.10;;;4.20;49.10;;;;;;20701;6874;74006;-67
2023/12/19 05:50:52;;;;;;;3.30;2.90;;;4.20;49.10;;;;;;20683;6874;118197;-68
2023/12/19 05:53:17;;;;;;;3.30;3.10;;;3.90;49.80;;;;;;20476;6874;310942;-67
2023/12/19 05:55:44;;;;;;;2.87;2.67;;;4.10;49.30;;;;;;20683;6874;118070;-65
2023/12/19 05:58:10;;;;;;;3.33;3.13;;;4.30;48.60;;;;;;20452;6874;308487;-66
2023/12/19 06:00:36;;;;;;;3.40;3.20;;;4.20;48.40;;;;;;20457;6874;307941;-67
2023/12/19 06:03:01;;;;;;;3.70;3.40;;;4.50;47.40;;;;;;20463;6874;278778;-67
2023/12/19 06:05:28;;;;;;;3.60;3.33;;;4.70;47.10;;;;;;20683;6874;117459;-67
2023/12/19 06:07:53;;;;;;;3.00;2.60;;;4.70;47.00;;;;;;20664;6874;118875;-67
2023/12/19 06:10:19;;;;;;;3.40;3.13;;;4.50;47.90;;;;;;20664;6874;120834;-67
2023/12/19 06:12:45;;;;;;;3.00;2.80;;;4.30;48.50;;;;;;20673;6874;118465;-68
2023/12/19 06:15:13;;;;;;;3.20;2.90;;;4.10;49.20;;;;;;20679;6874;119362;-67
2023/12/19 06:17:40;;;;;;;3.57;3.10;;;3.80;50.10;;;;;;20683;6874;118429;-65
2023/12/19 06:20:07;;;;;;;3.87;3.60;;;3.90;49.10;;;;;;20430;6874;337926;-65
2023/12/19 06:22:32;;;;;;;3.87;3.67;;;3.90;49.10;;;;;;20468;6874;309471;-65
2023/12/19 06:24:59;;;;;;;3.50;3.30;;;4.20;49.00;;;;;;20690;6874;118114;-65
2023/12/19 06:27:27;;;;;;;3.70;3.10;;;4.20;48.30;;;;;;20679;6874;118871;-66
2023/12/19 06:29:50;;;;;;;4.12;3.90;;;4.00;48.90;;;;;;20423;6874;310208;-68
2023/12/19 06:32:17;;;;;;;3.67;3.37;;;4.00;48.80;;;;;;20687;6874;118928;-66
2023/12/19 06:34:44;;;;;;;3.90;3.60;;;3.80;49.50;;;;;;20692;6874;70286;-66
2023/12/19 06:37:09;;;;;;;4.60;4.30;;;3.80;49.30;;;;;;20481;6874;318623;-66
2023/12/19 06:39:36;;;;;;;4.23;3.90;;;3.80;49.20;;;;;;20702;6874;68541;-65
2023/12/19 06:42:02;;;;;;;4.67;4.30;;;3.90;49.20;;;;;;20487;6873;299974;-66
2023/12/19 06:44:28;;;;;;;5.33;4.30;;;3.90;49.20;;;;;;20497;6874;280408;-65
2023/12/19 06:46:53;;;;;;;4.30;4.00;;;4.10;48.60;;;;;;20493;6874;308583;-65
2023/12/19 06:49:19;;;;;;;4.53;4.12;;;4.40;48.20;;;;;;20484;6874;309017;-65
2023/12/19 06:51:44;;;;;;;3.70;3.50;;;4.50;47.80;;;;;;20690;6874;70763;-66
2023/12/19 06:54:10;;;;;;;3.23;3.03;;;4.40;48.20;;;;;;20703;6874;68349;-67
2023/12/19 06:56:36;;;;;;;4.30;3.97;;;4.10;49.10;;;;;;20497;6874;278834;-69
2023/12/19 06:59:02;;;;;;;3.60;3.40;;;4.10;48.80;;;;;;20697;6874;68523;-69
2023/12/19 07:01:27;;;;;;;4.03;3.75;;;4.00;49.10;;;;;;20534;6647;307342;-76
2023/12/19 07:04:04;;;;;;;3.92;3.72;;;4.10;48.60;;;;;;20679;6774;281412;-78
2023/12/19 07:06:39;;;;;;;4.27;3.97;;;4.30;47.60;;;;;;20630;6789;338779;-78
2023/12/19 07:09:15;;;;;;;3.57;3.27;;;4.60;47.00;;;;;;20802;6780;68349;-77
2023/12/19 07:11:50;;;;;;;4.23;3.30;;;4.50;47.50;;;;;;20799;6802;68332;-77
2023/12/19 07:14:27;;;;;;;4.10;3.60;;;4.10;48.30;;;;;;20593;6802;308156;-78
2023/12/19 07:17:02;;;;;;;3.60;3.30;;;4.20;47.90;;;;;;20554;6813;342005;-76
2023/12/19 07:19:37;;;;;;;3.50;3.20;;;4.50;47.10;;;;;;20748;6810;76340;-77
2023/12/19 07:22:13;;;;;;;4.10;3.80;;;4.30;47.40;;;;;;20567;6811;339031;-76
2023/12/19 07:24:51;;;;;;;4.35;3.95;;;4.40;47.10;;;;;;20617;6795;307833;-77
2023/12/19 07:27:27;;;;;;;3.47;3.27;;;4.90;46.10;;;;;;20616;6794;300451;-77
2023/12/19 07:30:04;;;;;;;3.43;3.13;;;4.80;46.00;;;;;;20755;6791;68235;-78
2023/12/19 07:32:39;;;;;;;3.10;2.90;;;4.70;46.70;;;;;;20844;6791;67465;-78
2023/12/19 07:35:15;;;;;;;10.00;9.07;;;4.30;47.50;;;;;;20632;6791;278022;-78
2023/12/19 07:37:50;;;;;;;13.83;12.47;;;4.40;47.20;;;;;;20671;6776;326702;-78
2023/12/19 07:40:25;;;;;;;8.88;8.23;;;4.60;46.70;;;;;;20517;6791;325310;-76
2023/12/19 07:43:02;;;;;;;5.00;4.60;;;4.80;46.20;;;;;;20821;6797;67525;-77
2023/12/19 07:45:37;;;;;;;7.07;6.57;;;4.70;46.70;;;;;;20516;6815;278216;-77
2023/12/19 07:48:16;;;;;;;7.68;7.18;;;4.60;46.60;;;;;;20537;6819;308413;-76
2023/12/19 07:50:50;;;;;;;11.25;10.32;;;4.90;46.50;;;;;;20354;6822;311685;-77
2023/12/19 07:53:27;;;;;;;17.27;15.68;;;5.00;46.40;;;;;;20642;6787;278479;-77
2023/12/19 07:56:03;;;;;;;10.60;9.75;;;5.10;46.00;;;;;;20619;6779;310258;-75
2023/12/19 07:58:39;;;;;;;7.67;7.07;;;5.30;45.80;;;;;;20643;6786;278552;-77
2023/12/19 08:01:17;;;;;;;4.93;4.60;;;5.40;45.50;;;;;;20480;6786;338562;-78
2023/12/19 08:03:53;;;;;;;4.50;4.20;;;5.40;46.20;;;;;;20881;6780;67807;-78
2023/12/19 08:06:31;;;;;;;4.72;4.43;;;5.40;46.40;;;;;;20599;6787;279996;-79
2023/12/19 08:09:11;;;;;;;5.50;5.00;;;5.40;46.80;;;;;;20836;6786;67816;-79
2023/12/19 08:11:45;;;;;;;6.05;5.45;;;5.30;46.70;;;;;;20710;6765;307626;-78
2023/12/19 08:14:20;;;;;;;4.50;4.10;;;5.50;46.80;;;;;;20644;6787;308509;-78
2023/12/19 08:16:56;;;;;;;13.43;11.67;;;5.80;45.30;;;;;;20888;6775;67238;-77
2023/12/19 08:19:31;;;;;;;6.37;5.87;;;5.80;45.90;;;;;;20828;6780;68204;-77
2023/12/19 08:22:07;;;;;;;4.93;4.53;;;5.70;47.20;;;;;;20715;6765;302879;-78
2023/12/19 08:24:43;;;;;;;4.33;4.03;;;5.80;45.40;;;;;;20685;6775;279904;-78
2023/12/19 08:27:22;;;;;;;4.50;4.10;;;6.20;44.10;;;;;;20827;6780;68434;-77
2023/12/19 08:29:54;;;;;;;5.28;4.87;;;6.20;44.70;;;;;;20539;6780;310183;-78
2023/12/19 08:32:29;;;;;;;4.20;3.83;;;6.30;43.70;;;;;;20867;6768;67614;-79
2023/12/19 08:35:05;;;;;;;3.30;3.10;;;6.40;44.50;;;;;;20814;6836;67807;-80
2023/12/19 08:37:41;;;;;;;3.90;3.70;;;6.30;45.30;;;;;;20841;6791;67667;-79
2023/12/19 08:40:18;;;;;;;4.28;3.87;;;6.10;46.00;;;;;;20518;6791;339360;-80
2023/12/19 08:42:48;;;;;;;4.03;3.73;;;6.40;44.70;;;;;;20753;6753;295477;-80
2023/12/19 08:45:16;;;;;;;4.17;3.80;;;7.10;42.10;;;;;;20699;6809;279754;-78
2023/12/19 08:47:45;;;;;;;3.72;3.47;;;7.40;41.30;;;;;;20698;6806;310296;-78
2023/12/19 08:50:12;;;;;;;3.00;2.80;;;7.40;42.40;;;;;;20817;6806;75765;-78
2023/12/19 08:52:38;;;;;;;3.75;3.35;;;7.50;41.50;;;;;;20533;6863;279610;-78
2023/12/19 08:55:10;;;;;;;3.50;3.30;;;7.50;41.50;;;;;;20740;6863;69442;-75
2023/12/19 08:57:32;;;;;;;2.90;2.70;;;7.50;42.50;;;;;;20714;6863;67663;-76
2023/12/19 08:59:58;;;;;;;3.13;2.90;;;7.20;44.20;;;;;;20737;6863;75426;-76
2023/12/19 09:02:23;;;;;;;3.53;3.33;;;7.20;44.20;;;;;;20529;6863;310577;-78
2023/12/19 09:04:49;;;;;;;3.43;3.23;;;7.40;42.30;;;;;;20746;6861;68118;-77
2023/12/19 09:07:15;;;;;;;2.87;2.70;;;7.40;42.90;;;;;;20742;6862;67681;-78
2023/12/19 09:09:42;;;;;;;3.57;3.37;;;7.40;44.00;;;;;;20528;6862;339211;-79
2023/12/19 09:12:07;;;;;;;3.75;3.55;;;7.50;42.60;;;;;;20528;6862;309578;-76
2023/12/19 09:14:33;;;;;;;4.00;3.70;;;7.80;41.60;;;;;;20748;6862;67778;-77
2023/12/19 09:16:58;;;;;;;3.73;3.53;;;7.80;42.40;;;;;;20746;6862;68043;-78
2023/12/19 09:19:24;;;;;;;3.80;3.50;;;7.70;43.50;;;;;;20736;6862;67559;-78
2023/12/19 09:21:51;;;;;;;3.20;3.00;;;7.60;44.40;;;;;;20743;6862;68102;-76
2023/12/19 09:24:16;;;;;;;4.10;3.70;;;7.60;45.10;;;;;;20538;6863;281646;-76
2023/12/19 09:26:43;;;;;;;4.05;3.75;;;7.80;42.90;;;;;;20537;6863;302894;-76
2023/12/19 09:29:09;;;;;;;3.50;3.30;;;8.20;41.20;;;;;;20522;6863;306439;-77
2023/12/19 09:31:35;;;;;;;3.50;3.30;;;8.60;40.40;;;;;;20533;6863;309368;-76
2023/12/19 09:34:00;;;;;;;4.50;4.20;;;8.90;39.90;;;;;;20741;6863;67714;-76
2023/12/19 09:36:26;;;;;;;4.90;4.40;;;9.00;41.00;;;;;;20511;6863;324605;-76
2023/12/19 09:38:52;;;;;;;11.67;7.87;;;9.10;42.10;;;;;;20730;6863;90674;-76
2023/12/19 09:41:18;;;;;;;4.30;3.80;;;9.10;42.10;;;;;;20511;6863;310618;-75
2023/12/19 09:43:43;;;;;;;4.00;3.37;;;9.30;40.50;;;;;;20735;6863;67592;-76
2023/12/19 09:46:09;;;;;;;4.50;4.10;;;9.30;41.30;;;;;;20534;6863;309717;-76
2023/12/19 09:48:36;;;;;;;5.07;4.67;;;9.60;41.30;;;;;;20736;6863;69289;-79
2023/12/19 09:51:02;;;;;;;5.23;4.83;;;9.60;41.30;;;;;;20530;6863;279560;-79
2023/12/19 09:53:27;;;;;;;5.90;5.40;;;9.70;40.00;;;;;;20505;6863;280127;-76
2023/12/19 09:55:53;;;;;;;5.95;5.45;;;10.00;39.30;;;;;;20520;6863;297965;-75
2023/12/19 09:58:19;;;;;;;5.27;4.90;;;10.30;40.90;;;;;;20744;6863;68596;-76
2023/12/19 10:00:45;;;;;;;4.67;4.37;;;10.30;40.30;;;;;;20733;6863;68039;-75
2023/12/19 10:03:10;;;;;;;6.05;5.65;;;10.20;41.40;;;;;;20537;6863;280378;-75
2023/12/19 10:05:36;;;;;;;5.37;4.97;;;10.30;40.90;;;;;;20741;6863;68456;-76
2023/12/19 10:08:02;;;;;;;6.57;4.60;;;10.30;41.40;;;;;;20738;6863;71121;-75
2023/12/19 10:10:48;;;;;;;5.27;4.87;;;10.10;38.80;;;;;;20527;6863;325700;-75
2023/12/19 10:13:15;;;;;;;6.50;6.00;;;10.10;38.80;;;;;;20531;6863;329490;-75
2023/12/19 10:15:40;;;;;;;4.80;4.43;;;10.30;39.20;;;;;;20655;6861;68084;-76
2023/12/19 10:18:10;;;;;;;4.57;4.23;;;10.30;39.70;;;;;;20751;6862;67700;-75
2023/12/19 10:20:32;;;;;;;5.40;4.90;;;10.20;40.80;;;;;;20524;6862;339619;-76
2023/12/19 10:23:05;;;;;;;4.93;4.55;;;10.20;39.00;;;;;;20525;6862;341109;-75
2023/12/19 10:25:30;;;;;;;5.17;4.77;;;10.50;41.00;;;;;;20749;6862;68513;-75
2023/12/19 10:28:09;;;;;;;5.40;5.00;;;10.50;41.40;;;;;;20504;6862;309589;-75
2023/12/19 10:30:38;;;;;;;5.37;4.87;;;10.60;39.70;;;;;;20522;6862;338875;-75
2023/12/19 10:33:04;;;;;;;15.33;9.07;;;10.80;38.20;;;;;;20751;6862;72027;-75
2023/12/19 10:35:40;;;;;;;10.97;7.47;;;10.70;39.20;;;;;;20531;6862;300491;-74
2023/12/19 10:38:05;;;;;;;5.70;5.20;;;10.60;38.90;;;;;;20734;6863;68354;-75
2023/12/19 10:40:32;;;;;;;4.00;3.80;;;10.10;41.00;;;;;;20740;6863;69056;-75
2023/12/19 10:42:58;;;;;;;5.90;5.40;;;10.10;41.00;;;;;;20746;6863;68053;-75
2023/12/19 10:45:23;;;;;;;6.82;6.22;;;9.90;43.10;;;;;;20528;6863;280317;-75
2023/12/19 10:47:48;;;;;;;6.45;6.05;;;10.00;40.60;;;;;;20523;6863;310619;-75
2023/12/19 10:50:14;;;;;;;5.87;5.47;;;10.20;40.80;;;;;;20741;6863;67597;-75
2023/12/19 10:52:41;;;;;;;6.43;5.93;;;10.20;41.50;;;;;;20532;6863;327428;-75
2023/12/19 10:55:08;;;;;;;7.40;6.90;;;10.20;41.80;;;;;;20530;6863;309343;-74
2023/12/19 10:57:32;;;;;;;7.68;6.97;;;10.40;40.10;;;;;;20524;6863;310047;-75
2023/12/19 10:59:58;;;;;;;7.00;6.45;;;10.50;39.90;;;;;;20514;6863;318106;-75
2023/12/19 11:02:28;;;;;;;9.55;8.65;;;10.50;39.60;;;;;;20514;6863;280948;-76
2023/12/19 11:04:54;;;;;;;8.50;7.73;;;10.50;39.60;;;;;;20718;6863;67671;-75
2023/12/19 11:07:19;;;;;;;9.30;8.38;;;10.10;40.40;;;;;;20508;6863;308719;-75
2023/12/19 11:09:44;;;;;;;8.10;7.40;;;9.90;42.30;;;;;;20727;6863;68565;-76
2023/12/19 11:12:10;;;;;;;10.30;8.13;;;9.70;43.30;;;;;;20722;6863;70780;-76
2023/12/19 11:14:36;;;;;;;8.80;8.00;;;8.90;44.90;;;;;;20731;6863;71305;-76
2023/12/19 11:17:16;;;;;;;8.30;7.50;;;8.90;44.90;;;;;;20745;6863;67987;-77
2023/12/19 11:19:45;;;;;;;10.20;8.60;;;8.60;45.70;;;;;;20735;6863;68511;-76
2023/12/19 11:22:14;;;;;;;9.77;8.77;;;8.30;46.10;;;;;;20705;6863;68080;-76
2023/12/19 11:24:43;;;;;;;8.83;8.03;;;8.10;46.60;;;;;;20718;6863;72374;-77
2023/12/19 11:27:21;;;;;;;8.67;7.97;;;7.90;47.20;;;;;;20717;6861;68172;-77
2023/12/19 11:29:47;;;;;;;9.00;8.30;;;7.70;47.60;;;;;;20722;6862;67693;-77
2023/12/19 11:32:26;;;;;;;11.30;10.30;;;7.50;48.00;;;;;;20507;6862;280122;-77
2023/12/19 11:34:51;;;;;;;10.43;9.43;;;7.70;47.80;;;;;;20697;6862;69357;-77
2023/12/19 11:37:22;;;;;;;10.50;9.40;;;7.60;48.30;;;;;;20741;6862;69063;-77
2023/12/19 11:39:47;;;;;;;11.23;10.27;;;7.60;48.30;;;;;;20520;6862;280109;-77
2023/12/19 11:42:39;;;;;;;12.05;11.07;;;7.80;48.70;;;;;;20536;6862;310748;-79
2023/12/19 11:45:19;;;;;;;9.27;8.33;;;8.10;48.60;;;;;;20750;6862;67736;-79
2023/12/19 11:47:45;;;;;;;11.70;10.70;;;8.20;48.70;;;;;;20537;6863;311646;-77
2023/12/19 11:50:10;;;;;;;10.43;9.13;;;8.30;47.80;;;;;;20744;6863;68560;-77
2023/12/19 11:52:36;;;;;;;10.13;9.13;;;8.30;48.30;;;;;;20757;6863;68779;-79
2023/12/19 11:55:02;;;;;;;12.30;11.27;;;8.10;48.60;;;;;;20532;6863;339379;-76
2023/12/19 11:57:29;;;;;;;11.93;10.98;;;8.20;48.10;;;;;;20535;6863;281808;-77
2023/12/19 11:59:55;;;;;;;12.40;11.23;;;8.40;48.20;;;;;;20518;6863;295229;-78
2023/12/19 12:02:30;;;;;;;12.10;11.05;;;8.80;46.80;;;;;;20534;6863;309443;-76
2023/12/19 12:05:06;;;;;;;11.65;10.60;;;8.80;46.80;;;;;;20516;6863;340787;-77
2023/12/19 12:07:31;;;;;;;13.07;10.20;;;9.00;47.30;;;;;;20728;6863;69932;-76
2023/12/19 12:10:04;;;;;;;10.70;9.70;;;8.80;47.40;;;;;;20708;6863;68111;-77
2023/12/19 12:12:32;;;;;;;11.68;10.57;;;8.50;48.10;;;;;;20527;6863;280352;-74
2023/12/19 12:15:11;;;;;;;13.27;11.97;;;8.40;47.60;;;;;;20525;6863;281051;-74
2023/12/19 12:17:37;;;;;;;13.10;12.00;;;8.60;47.80;;;;;;20530;6863;305882;-75
2023/12/19 12:20:03;;;;;;;11.13;10.13;;;8.50;47.60;;;;;;20728;6863;68493;-76
2023/12/19 12:22:28;;;;;;;13.27;12.17;;;8.50;47.60;;;;;;20496;6863;309346;-77
2023/12/19 12:24:54;;;;;;;10.33;9.23;;;8.40;47.10;;;;;;20716;6863;69081;-77
2023/12/19 12:27:21;;;;;;;11.77;10.77;;;8.10;47.20;;;;;;20524;6863;317570;-78
2023/12/19 12:29:47;;;;;;;11.03;9.97;;;7.80;47.00;;;;;;20731;6863;68127;-76
2023/12/19 12:32:14;;;;;;;9.00;8.13;;;7.80;47.00;;;;;;20746;6863;68140;-78
2023/12/19 12:34:40;;;;;;;11.70;10.70;;;7.50;47.90;;;;;;20531;6863;312150;-77
2023/12/19 12:37:05;;;;;;;11.40;10.30;;;7.50;47.60;;;;;;20743;6863;68125;-77
2023/12/19 12:39:31;;;;;;;12.53;11.43;;;7.50;48.30;;;;;;20518;6861;300675;-79
2023/12/19 12:42:01;;;;;;;12.18;11.18;;;7.80;47.90;;;;;;20519;6862;338105;-78
2023/12/19 12:44:28;;;;;;;11.30;10.20;;;7.80;47.90;;;;;;20732;6862;68076;-78
2023/12/19 12:46:55;;;;;;;10.83;9.73;;;7.80;48.30;;;;;;20724;6862;68559;-77